Time;durP1;ratioP1;P1;durP2;ratioP2;P2;SDS_P1;SDS_P2;PMS_P1;PMS_P2;Temp;Humidity;BMP_temperature;BMP_pressure;BME280_temperature;BME280_humidity;BME280_pressure;Samples;Min_cycle;Max_cycle;Signal;HPM_P1;HPM_P2
2023/03/17 00:00:19;;;;;;;28.55;13.77;;;;;;;;;;4993406;28;20429;-83
2023/03/17 00:02:46;;;;;;;27.90;12.85;;;;;;;;;;5019830;28;20022;-83
2023/03/17 00:05:21;;;;;;;23.45;12.80;;;;;;;;;;5019552;28;20025;-84
2023/03/17 00:07:48;;;;;;;27.45;12.18;;;;;;;;;;5019637;28;20026;-84
2023/03/17 00:10:18;;;;;;;18.67;7.30;;;;;;;;;;5019515;28;20037;-83
2023/03/17 00:12:45;;;;;;;16.50;6.93;;;;;;;;;;5019514;28;20048;-83
2023/03/17 00:15:12;;;;;;;16.48;7.10;;;;;;;;;;5018550;28;20080;-83
2023/03/17 00:17:38;;;;;;;15.02;6.45;;;;;;;;;;5019681;28;20050;-83
2023/03/17 00:20:05;;;;;;;16.33;7.45;;;;;;;;;;5017928;28;20050;-82
2023/03/17 00:22:31;;;;;;;14.80;7.43;;;;;;;;;;5019442;28;20026;-83
2023/03/17 00:24:57;;;;;;;18.30;7.68;;;;;;;;;;5018246;28;20117;-82
2023/03/17 00:27:23;;;;;;;14.48;6.88;;;;;;;;;;5018212;28;20026;-83
2023/03/17 00:29:49;;;;;;;14.23;6.68;;;;;;;;;;5019318;28;20041;-83
2023/03/17 00:32:17;;;;;;;16.02;7.13;;;;;;;;;;5018213;28;20116;-83
2023/03/17 00:34:44;;;;;;;16.85;8.20;;;;;;;;;;5019414;28;20025;-84
2023/03/17 00:37:11;;;;;;;19.17;8.65;;;;;;;;;;5019426;28;20105;-83
2023/03/17 00:39:38;;;;;;;18.05;8.48;;;;;;;;;;5018409;28;20017;-82
2023/03/17 00:42:05;;;;;;;15.45;7.50;;;;;;;;;;5018897;28;20042;-82
2023/03/17 00:44:31;;;;;;;16.80;7.53;;;;;;;;;;5018719;28;20336;-82
2023/03/17 00:50:01;;;;;;;21.85;7.30;;;;;;;;;;5018963;28;20036;-83
2023/03/17 00:52:28;;;;;;;18.45;8.23;;;;;;;;;;5019227;28;20110;-84
2023/03/17 00:54:54;;;;;;;18.25;8.77;;;;;;;;;;5018881;28;20030;-83
2023/03/17 00:57:20;;;;;;;18.98;8.95;;;;;;;;;;5018740;28;20061;-83
2023/03/17 00:59:46;;;;;;;16.15;8.27;;;;;;;;;;5019156;28;20033;-83
2023/03/17 01:02:28;;;;;;;18.92;8.65;;;;;;;;;;5018417;28;20470;-83
2023/03/17 01:04:54;;;;;;;13.20;7.25;;;;;;;;;;5017707;28;20022;-83
2023/03/17 01:07:20;;;;;;;14.55;7.13;;;;;;;;;;5018952;28;20072;-84
2023/03/17 01:09:46;;;;;;;18.15;8.93;;;;;;;;;;5018690;28;20026;-84
2023/03/17 01:12:13;;;;;;;26.80;12.20;;;;;;;;;;5018634;28;20061;-83
2023/03/17 01:14:39;;;;;;;33.00;13.48;;;;;;;;;;5018840;28;20029;-83
2023/03/17 01:17:24;;;;;;;36.08;16.02;;;;;;;;;;5017364;28;20108;-84
2023/03/17 01:19:50;;;;;;;36.38;16.80;;;;;;;;;;5018248;28;20042;-83
2023/03/17 01:22:16;;;;;;;39.25;17.25;;;;;;;;;;5018368;28;20040;-83
2023/03/17 01:24:42;;;;;;;38.00;17.85;;;;;;;;;;5017402;28;20050;-84
2023/03/17 01:27:08;;;;;;;39.78;18.45;;;;;;;;;;5018213;28;20095;-83
2023/03/17 01:29:34;;;;;;;32.88;16.67;;;;;;;;;;5018168;28;20034;-83
2023/03/17 01:32:00;;;;;;;39.28;19.98;;;;;;;;;;5018355;28;20121;-83
2023/03/17 01:34:27;;;;;;;39.72;19.65;;;;;;;;;;5018177;28;20022;-83
2023/03/17 01:36:53;;;;;;;34.42;17.73;;;;;;;;;;5017978;28;20030;-83
2023/03/17 01:39:19;;;;;;;38.28;17.70;;;;;;;;;;5018088;28;20022;-83
2023/03/17 01:41:45;;;;;;;31.83;15.13;;;;;;;;;;5018324;28;20116;-84
2023/03/17 01:44:18;;;;;;;27.45;12.95;;;;;;;;;;5016675;28;20042;-83
2023/03/17 01:47:22;;;;;;;23.75;12.38;;;;;;;;;;5018283;28;20121;-83
2023/03/17 01:49:49;;;;;;;22.05;11.23;;;;;;;;;;5017894;28;20038;-83
2023/03/17 01:52:19;;;;;;;20.63;8.52;;;;;;;;;;5017123;28;20022;-84
2023/03/17 01:54:49;;;;;;;17.00;8.32;;;;;;;;;;5018285;28;20025;-84
2023/03/17 01:57:22;;;;;;;18.60;8.73;;;;;;;;;;5017740;28;20412;-84
2023/03/17 01:59:50;;;;;;;17.80;8.23;;;;;;;;;;5017977;28;20085;-83
2023/03/17 02:02:19;;;;;;;21.58;10.02;;;;;;;;;;5017744;28;20037;-83
2023/03/17 02:04:45;;;;;;;26.25;17.02;;;;;;;;;;5018077;28;20840;-83
2023/03/17 02:07:11;;;;;;;21.05;11.77;;;;;;;;;;5018037;28;20034;-83
2023/03/17 02:09:37;;;;;;;18.35;9.93;;;;;;;;;;5018058;28;20045;-83
2023/03/17 02:12:04;;;;;;;23.02;14.75;;;;;;;;;;5017682;28;20033;-82
2023/03/17 02:14:30;;;;;;;16.77;8.70;;;;;;;;;;5016534;28;20062;-82
2023/03/17 02:16:56;;;;;;;13.77;7.07;;;;;;;;;;5017553;28;20070;-83
2023/03/17 02:19:22;;;;;;;15.75;7.53;;;;;;;;;;5017589;28;20048;-83
2023/03/17 02:21:58;;;;;;;19.40;7.95;;;;;;;;;;5017665;28;20022;-83
2023/03/17 02:24:30;;;;;;;17.15;8.15;;;;;;;;;;5016376;28;20072;-83
2023/03/17 02:26:59;;;;;;;18.95;9.40;;;;;;;;;;5017824;28;20025;-86
2023/03/17 02:29:26;;;;;;;23.55;10.18;;;;;;;;;;5016206;28;20044;-85
2023/03/17 02:31:53;;;;;;;25.48;11.15;;;;;;;;;;5017438;28;20037;-83
2023/03/17 02:34:19;;;;;;;26.02;12.02;;;;;;;;;;5017515;28;20034;-82
2023/03/17 02:36:46;;;;;;;30.08;13.50;;;;;;;;;;5017486;28;20030;-83
2023/03/17 02:39:12;;;;;;;26.73;12.25;;;;;;;;;;5017529;28;20022;-83
2023/03/17 02:41:38;;;;;;;22.60;10.80;;;;;;;;;;5017563;28;20026;-83
2023/03/17 02:44:04;;;;;;;22.92;11.13;;;;;;;;;;5017083;28;20037;-83
2023/03/17 02:46:30;;;;;;;23.73;11.32;;;;;;;;;;5017178;28;20018;-83
2023/03/17 02:48:56;;;;;;;22.30;10.25;;;;;;;;;;5016225;28;20026;-83
2023/03/17 02:51:22;;;;;;;23.88;11.52;;;;;;;;;;5016173;28;20388;-83
2023/03/17 02:53:48;;;;;;;23.33;11.30;;;;;;;;;;5017471;28;20033;-83
2023/03/17 02:56:14;;;;;;;21.30;11.43;;;;;;;;;;5017398;28;20316;-83
2023/03/17 02:58:40;;;;;;;29.40;12.75;;;;;;;;;;5016137;28;20026;-83
2023/03/17 03:01:08;;;;;;;31.08;14.13;;;;;;;;;;5017242;28;20032;-83
2023/03/17 03:03:35;;;;;;;29.45;13.85;;;;;;;;;;5019836;28;20029;-83
2023/03/17 03:06:02;;;;;;;24.42;12.88;;;;;;;;;;5019737;28;20041;-83
2023/03/17 03:08:28;;;;;;;20.95;12.30;;;;;;;;;;5019695;28;20077;-83
2023/03/17 03:10:54;;;;;;;31.33;16.52;;;;;;;;;;5020933;28;20052;-84
2023/03/17 03:13:20;;;;;;;43.25;21.27;;;;;;;;;;5021033;28;20038;-83
2023/03/17 03:18:50;;;;;;;19.25;11.52;;;;;;;;;;5020236;28;20061;-83
2023/03/17 03:21:16;;;;;;;16.30;9.00;;;;;;;;;;5020767;28;20121;-84
2023/03/17 03:23:42;;;;;;;21.48;9.50;;;;;;;;;;5020616;28;20033;-84
2023/03/17 03:26:08;;;;;;;18.55;9.93;;;;;;;;;;5020393;28;20033;-84
2023/03/17 03:28:34;;;;;;;26.25;13.02;;;;;;;;;;5019527;28;20025;-84
2023/03/17 03:34:04;;;;;;;24.55;9.35;;;;;;;;;;5020785;28;20479;-84
2023/03/17 03:36:31;;;;;;;17.15;8.52;;;;;;;;;;5020653;28;20055;-84
2023/03/17 03:38:57;;;;;;;15.43;7.07;;;;;;;;;;5020146;28;20431;-84
2023/03/17 03:41:23;;;;;;;16.02;7.97;;;;;;;;;;5020355;28;20026;-85
2023/03/17 03:43:49;;;;;;;15.93;7.30;;;;;;;;;;5019221;28;20034;-84
2023/03/17 03:46:15;;;;;;;15.75;8.18;;;;;;;;;;5018961;28;20018;-85
2023/03/17 03:48:41;;;;;;;13.88;7.28;;;;;;;;;;5019255;28;20030;-85
2023/03/17 03:51:07;;;;;;;15.57;8.50;;;;;;;;;;5018686;28;20076;-85
2023/03/17 03:53:34;;;;;;;15.68;8.27;;;;;;;;;;5020469;28;20029;-85
2023/03/17 03:56:00;;;;;;;13.40;7.45;;;;;;;;;;5020019;28;20029;-85
2023/03/17 03:58:26;;;;;;;15.52;7.25;;;;;;;;;;5020031;28;20079;-84
2023/03/17 04:01:29;;;;;;;15.70;6.82;;;;;;;;;;5020112;28;20033;-84
2023/03/17 04:03:55;;;;;;;17.17;6.40;;;;;;;;;;5019623;28;20018;-84
2023/03/17 04:06:21;;;;;;;14.95;6.57;;;;;;;;;;5019867;28;20091;-83
2023/03/17 04:08:48;;;;;;;13.40;6.70;;;;;;;;;;5019490;28;20030;-84
2023/03/17 04:11:15;;;;;;;16.85;6.50;;;;;;;;;;5019847;28;20032;-84
2023/03/17 04:13:41;;;;;;;16.98;7.50;;;;;;;;;;5017938;28;20030;-84
2023/03/17 04:16:26;;;;;;;14.05;6.85;;;;;;;;;;5019850;28;20312;-84
2023/03/17 04:18:52;;;;;;;19.88;8.10;;;;;;;;;;5019509;28;20100;-85
2023/03/17 04:21:19;;;;;;;21.85;8.90;;;;;;;;;;5019058;28;20022;-84
2023/03/17 04:23:46;;;;;;;20.88;9.30;;;;;;;;;;5019378;28;20439;-84
2023/03/17 04:26:12;;;;;;;19.48;8.95;;;;;;;;;;5027467;28;20112;-85
2023/03/17 04:28:38;;;;;;;21.48;9.63;;;;;;;;;;5038989;28;20056;-85
2023/03/17 04:31:05;;;;;;;21.35;8.90;;;;;;;;;;5039469;28;20025;-84
2023/03/17 04:33:31;;;;;;;14.80;7.25;;;;;;;;;;5039492;28;20017;-86
2023/03/17 04:35:57;;;;;;;15.13;7.63;;;;;;;;;;5026461;28;20025;-84
2023/03/17 04:38:23;;;;;;;20.38;8.60;;;;;;;;;;5026559;28;20037;-84
2023/03/17 04:40:50;;;;;;;16.33;8.40;;;;;;;;;;5038624;28;20092;-84
2023/03/17 04:43:18;;;;;;;29.02;9.50;;;;;;;;;;5037700;28;20041;-84
2023/03/17 04:45:44;;;;;;;22.95;10.57;;;;;;;;;;5038503;28;20048;-81
2023/03/17 04:48:10;;;;;;;22.40;10.43;;;;;;;;;;5038127;28;20412;-79
2023/03/17 04:50:36;;;;;;;27.90;11.57;;;;;;;;;;5038173;28;20026;-81
2023/03/17 04:53:02;;;;;;;24.52;11.00;;;;;;;;;;5038223;28;20030;-80
2023/03/17 04:55:28;;;;;;;28.38;11.68;;;;;;;;;;5038285;28;20055;-79
2023/03/17 04:57:54;;;;;;;25.83;11.30;;;;;;;;;;5038424;28;20049;-81
2023/03/17 05:00:20;;;;;;;26.02;11.48;;;;;;;;;;5038361;28;20382;-79
2023/03/17 05:02:46;;;;;;;24.88;11.38;;;;;;;;;;5038201;28;20017;-79
2023/03/17 05:05:12;;;;;;;25.02;12.70;;;;;;;;;;5036585;28;20030;-80
2023/03/17 05:07:39;;;;;;;25.55;12.07;;;;;;;;;;5038091;28;20437;-79
2023/03/17 05:10:05;;;;;;;26.42;11.95;;;;;;;;;;5037995;28;20041;-79
2023/03/17 05:12:31;;;;;;;22.13;12.50;;;;;;;;;;5037919;28;20057;-80
2023/03/17 05:14:57;;;;;;;27.25;13.52;;;;;;;;;;5036918;28;20029;-79
2023/03/17 05:17:23;;;;;;;40.78;13.52;;;;;;;;;;5037738;28;20416;-80
2023/03/17 05:19:49;;;;;;;24.20;12.80;;;;;;;;;;5037606;28;20053;-79
2023/03/17 05:22:15;;;;;;;27.05;13.05;;;;;;;;;;5037869;28;20029;-79
2023/03/17 05:24:42;;;;;;;26.35;13.20;;;;;;;;;;5037685;28;20022;-80
2023/03/17 05:27:08;;;;;;;29.60;14.70;;;;;;;;;;5037295;28;20025;-80
2023/03/17 05:29:34;;;;;;;33.47;15.85;;;;;;;;;;5037484;28;20025;-80
2023/03/17 05:32:00;;;;;;;31.20;14.88;;;;;;;;;;5036552;28;20037;-80
2023/03/17 05:34:26;;;;;;;33.33;16.77;;;;;;;;;;5036582;28;20040;-80
2023/03/17 05:36:52;;;;;;;35.88;17.02;;;;;;;;;;5037600;28;20036;-79
2023/03/17 05:39:18;;;;;;;31.98;14.93;;;;;;;;;;5037287;28;20021;-78
2023/03/17 05:41:45;;;;;;;33.65;15.35;;;;;;;;;;5035161;28;20027;-79
2023/03/17 05:44:12;;;;;;;29.02;12.68;;;;;;;;;;5037312;28;20021;-79
2023/03/17 05:46:38;;;;;;;31.63;13.20;;;;;;;;;;5035463;28;20064;-78
2023/03/17 05:49:04;;;;;;;24.75;11.60;;;;;;;;;;5035229;28;20026;-77
2023/03/17 05:51:30;;;;;;;20.35;10.48;;;;;;;;;;5036281;28;20059;-79
2023/03/17 05:53:57;;;;;;;20.33;9.70;;;;;;;;;;5035985;28;20025;-77
2023/03/17 05:56:25;;;;;;;22.50;11.80;;;;;;;;;;5037796;28;20434;-78
2023/03/17 05:58:51;;;;;;;23.05;11.35;;;;;;;;;;5057230;28;20048;-78
2023/03/17 06:01:17;;;;;;;21.23;10.52;;;;;;;;;;5057071;28;20036;-79
2023/03/17 06:03:43;;;;;;;22.60;10.48;;;;;;;;;;5052870;28;20033;-79
2023/03/17 06:06:09;;;;;;;19.13;10.38;;;;;;;;;;5037078;28;20109;-78
2023/03/17 06:08:35;;;;;;;21.85;11.27;;;;;;;;;;5036998;28;20109;-79
2023/03/17 06:11:01;;;;;;;22.02;10.32;;;;;;;;;;5035819;28;20332;-79
2023/03/17 06:13:27;;;;;;;18.40;9.73;;;;;;;;;;5037234;28;20336;-79
2023/03/17 06:15:53;;;;;;;22.02;9.02;;;;;;;;;;5036679;28;20029;-78
2023/03/17 06:18:19;;;;;;;20.83;10.07;;;;;;;;;;5036739;28;20049;-79
2023/03/17 06:20:45;;;;;;;27.13;10.88;;;;;;;;;;5036900;28;20025;-80
2023/03/17 06:23:11;;;;;;;25.98;12.23;;;;;;;;;;5036933;28;20029;-78
2023/03/17 06:25:38;;;;;;;31.70;13.00;;;;;;;;;;5036649;28;20026;-78
2023/03/17 06:28:04;;;;;;;29.77;14.30;;;;;;;;;;5035769;28;20305;-78
2023/03/17 06:30:32;;;;;;;31.73;15.13;;;;;;;;;;5036919;28;20036;-79
2023/03/17 06:32:58;;;;;;;27.67;13.75;;;;;;;;;;5033939;28;20025;-78
2023/03/17 06:35:24;;;;;;;31.80;14.70;;;;;;;;;;5036583;28;20415;-77
2023/03/17 06:37:51;;;;;;;30.98;15.20;;;;;;;;;;5038665;28;20069;-78
2023/03/17 06:40:17;;;;;;;30.75;15.65;;;;;;;;;;5040770;28;20107;-78
2023/03/17 06:42:43;;;;;;;39.83;17.33;;;;;;;;;;5040479;28;20404;-78
2023/03/17 06:45:09;;;;;;;41.55;16.58;;;;;;;;;;5040886;28;20033;-78
2023/03/17 06:47:38;;;;;;;32.63;13.68;;;;;;;;;;5040522;28;20038;-79
2023/03/17 06:50:05;;;;;;;24.15;11.50;;;;;;;;;;5040442;28;20022;-81
2023/03/17 06:52:31;;;;;;;19.35;9.80;;;;;;;;;;5040513;28;20032;-79
2023/03/17 06:54:57;;;;;;;22.95;10.20;;;;;;;;;;5040553;28;20028;-79
2023/03/17 06:57:23;;;;;;;31.10;11.05;;;;;;;;;;5040310;28;20021;-79
2023/03/17 06:59:49;;;;;;;34.85;13.32;;;;;;;;;;5038902;28;20030;-78
2023/03/17 07:02:15;;;;;;;22.85;9.68;;;;;;;;;;5040289;28;20475;-78
2023/03/17 07:04:41;;;;;;;16.58;8.57;;;;;;;;;;5040424;28;20088;-79
2023/03/17 07:07:08;;;;;;;18.35;9.00;;;;;;;;;;5040440;28;20026;-79
2023/03/17 07:09:34;;;;;;;14.85;8.30;;;;;;;;;;5040341;28;20029;-79
2023/03/17 07:12:04;;;;;;;20.48;9.75;;;;;;;;;;5040300;28;20395;-78
2023/03/17 07:14:34;;;;;;;23.38;11.73;;;;;;;;;;5040144;28;20120;-79
2023/03/17 07:17:01;;;;;;;21.85;9.77;;;;;;;;;;5039874;28;20026;-78
2023/03/17 07:19:27;;;;;;;19.75;12.10;;;;;;;;;;5039847;28;20041;-79
2023/03/17 07:21:57;;;;;;;16.23;9.30;;;;;;;;;;5039952;28;20418;-79
2023/03/17 07:24:23;;;;;;;15.40;7.50;;;;;;;;;;5039994;28;20029;-79
2023/03/17 07:26:49;;;;;;;19.83;9.07;;;;;;;;;;5039857;28;20097;-78
2023/03/17 07:29:16;;;;;;;14.82;7.72;;;;;;;;;;5039807;28;20104;-77
2023/03/17 07:31:43;;;;;;;14.70;7.53;;;;;;;;;;5039958;28;20064;-77
2023/03/17 07:34:09;;;;;;;14.80;7.28;;;;;;;;;;5039907;28;20037;-77
2023/03/17 07:36:36;;;;;;;18.90;9.20;;;;;;;;;;5039785;28;20426;-77
2023/03/17 07:39:02;;;;;;;16.65;8.35;;;;;;;;;;5039448;28;20025;-77
2023/03/17 07:41:28;;;;;;;16.77;8.07;;;;;;;;;;5039791;28;20025;-78
2023/03/17 07:43:56;;;;;;;13.32;7.30;;;;;;;;;;5037999;28;20084;-80
2023/03/17 07:46:22;;;;;;;16.83;6.75;;;;;;;;;;5039714;28;20026;-80
2023/03/17 07:48:48;;;;;;;19.95;7.57;;;;;;;;;;5038301;28;20041;-77
2023/03/17 07:51:16;;;;;;;18.25;9.13;;;;;;;;;;5038100;28;20064;-78
2023/03/17 07:53:43;;;;;;;19.13;8.07;;;;;;;;;;5039439;28;20021;-78
2023/03/17 07:56:10;;;;;;;18.88;7.70;;;;;;;;;;5038033;28;20037;-78
2023/03/17 07:58:36;;;;;;;18.02;9.20;;;;;;;;;;5039429;28;20079;-78
2023/03/17 08:01:02;;;;;;;14.18;8.40;;;;;;;;;;5039163;28;20015;-77
2023/03/17 08:03:31;;;;;;;19.30;8.10;;;;;;;;;;5039136;28;20028;-77
2023/03/17 08:05:58;;;;;;;13.15;8.10;;;;;;;;;;5039273;28;20028;-77
2023/03/17 08:08:25;;;;;;;23.95;11.90;;;;;;;;;;5039047;28;20030;-77
2023/03/17 08:10:51;;;;;;;31.85;17.58;;;;;;;;;;5038845;28;20060;-77
2023/03/17 08:13:17;;;;;;;22.58;11.60;;;;;;;;;;5037625;28;20048;-77
2023/03/17 08:15:44;;;;;;;17.98;8.18;;;;;;;;;;5039162;28;20034;-77
2023/03/17 08:18:10;;;;;;;15.57;8.32;;;;;;;;;;5038785;28;20100;-76
2023/03/17 08:20:36;;;;;;;18.40;10.55;;;;;;;;;;5038800;28;20396;-78
2023/03/17 08:23:03;;;;;;;17.38;9.18;;;;;;;;;;5037813;28;20068;-77
2023/03/17 08:25:30;;;;;;;23.23;12.30;;;;;;;;;;5037432;28;20025;-77
2023/03/17 08:27:56;;;;;;;21.80;12.23;;;;;;;;;;5036904;28;20039;-77
2023/03/17 08:30:22;;;;;;;16.10;8.60;;;;;;;;;;5038386;28;20032;-77
2023/03/17 08:32:48;;;;;;;26.48;10.45;;;;;;;;;;5038615;28;20025;-77
2023/03/17 08:35:15;;;;;;;17.65;9.65;;;;;;;;;;5038490;28;20026;-77
2023/03/17 08:37:47;;;;;;;19.83;9.27;;;;;;;;;;5038541;28;20017;-77
2023/03/17 08:40:15;;;;;;;;;;;;;;;;;;5038209;28;20323;-77
2023/03/17 08:42:42;;;;;;;18.30;9.35;;;;;;;;;;5038835;28;19909;-77
2023/03/17 08:45:08;;;;;;;13.57;7.03;;;;;;;;;;5038430;28;20311;-77
2023/03/17 08:47:35;;;;;;;14.90;7.25;;;;;;;;;;5037156;28;20047;-77
2023/03/17 08:50:01;;;;;;;17.48;8.43;;;;;;;;;;5038334;28;20052;-77
2023/03/17 08:52:28;;;;;;;12.88;6.97;;;;;;;;;;5038378;28;20037;-77
2023/03/17 08:54:54;;;;;;;9.57;5.60;;;;;;;;;;5037081;28;20327;-78
2023/03/17 08:57:21;;;;;;;17.20;7.75;;;;;;;;;;5038062;28;20067;-77
2023/03/17 08:59:47;;;;;;;18.83;8.05;;;;;;;;;;5037657;28;20300;-78
2023/03/17 09:02:14;;;;;;;15.20;7.25;;;;;;;;;;5038028;28;20099;-78
2023/03/17 09:04:41;;;;;;;34.42;16.50;;;;;;;;;;5038242;28;20022;-78
2023/03/17 09:07:09;;;;;;;22.45;11.15;;;;;;;;;;5037814;28;20051;-78
2023/03/17 09:09:36;;;;;;;18.42;8.05;;;;;;;;;;5037958;28;20108;-78
2023/03/17 09:12:04;;;;;;;17.65;7.32;;;;;;;;;;5038137;28;20108;-78
2023/03/17 09:14:30;;;;;;;13.23;6.63;;;;;;;;;;5037909;28;20038;-77
2023/03/17 09:16:56;;;;;;;8.10;4.43;;;;;;;;;;5036345;28;20037;-77
2023/03/17 09:19:22;;;;;;;11.02;5.80;;;;;;;;;;5037736;28;20384;-77
2023/03/17 09:21:50;;;;;;;22.95;8.60;;;;;;;;;;5037996;28;20308;-77
2023/03/17 09:24:16;;;;;;;14.68;6.55;;;;;;;;;;5037682;28;20025;-77
2023/03/17 09:26:42;;;;;;;29.67;9.27;;;;;;;;;;5037622;28;20026;-77
2023/03/17 09:29:08;;;;;;;18.45;7.00;;;;;;;;;;5036464;28;20069;-78
2023/03/17 09:31:37;;;;;;;18.83;8.45;;;;;;;;;;5037570;28;20030;-78
2023/03/17 09:34:04;;;;;;;14.25;6.72;;;;;;;;;;5037733;28;20088;-77
2023/03/17 09:36:32;;;;;;;12.45;5.60;;;;;;;;;;5036155;28;20033;-77
2023/03/17 09:38:58;;;;;;;26.55;10.70;;;;;;;;;;5037298;28;20025;-77
2023/03/17 09:41:24;;;;;;;42.25;14.80;;;;;;;;;;5036480;28;20025;-77
2023/03/17 09:43:56;;;;;;;26.90;10.45;;;;;;;;;;5037262;28;20367;-77
2023/03/17 09:46:31;;;;;;;7.85;4.00;;;;;;;;;;5035878;28;20037;-77
2023/03/17 09:49:01;;;;;;;9.13;4.68;;;;;;;;;;5037272;28;20057;-76
2023/03/17 09:51:27;;;;;;;12.50;4.68;;;;;;;;;;5037203;28;20029;-77
2023/03/17 09:54:01;;;;;;;6.57;3.58;;;;;;;;;;5037186;28;20072;-77
2023/03/17 09:56:29;;;;;;;7.03;3.30;;;;;;;;;;5037222;28;20057;-77
2023/03/17 09:59:06;;;;;;;7.90;3.78;;;;;;;;;;5037062;28;20035;-77
2023/03/17 10:01:33;;;;;;;12.05;4.50;;;;;;;;;;5036997;28;20030;-77
2023/03/17 10:03:59;;;;;;;7.10;3.42;;;;;;;;;;5037109;28;20024;-77
2023/03/17 10:06:28;;;;;;;20.77;7.15;;;;;;;;;;5036923;28;20022;-78
2023/03/17 10:09:01;;;;;;;13.18;4.90;;;;;;;;;;5035992;28;20040;-77
2023/03/17 10:11:45;;;;;;;6.70;3.40;;;;;;;;;;5036899;28;20355;-77
2023/03/17 10:14:17;;;;;;;10.38;4.10;;;;;;;;;;5036976;28;20113;-77
2023/03/17 10:16:47;;;;;;;12.68;4.70;;;;;;;;;;5037122;28;20048;-77
2023/03/17 10:19:20;;;;;;;12.55;4.57;;;;;;;;;;5035732;28;20045;-81
2023/03/17 10:21:57;;;;;;;13.10;4.45;;;;;;;;;;5036989;28;20479;-81
2023/03/17 10:24:24;;;;;;;9.98;4.63;;;;;;;;;;5036789;28;20327;-81
2023/03/17 10:26:52;;;;;;;15.82;6.03;;;;;;;;;;5037112;28;20021;-81
2023/03/17 10:29:22;;;;;;;9.02;4.10;;;;;;;;;;5035909;28;20030;-80
2023/03/17 10:31:52;;;;;;;10.32;4.47;;;;;;;;;;5036891;28;20352;-80
2023/03/17 10:34:22;;;;;;;10.50;4.20;;;;;;;;;;5036927;28;20045;-80
2023/03/17 10:36:50;;;;;;;6.82;3.47;;;;;;;;;;5036898;28;20067;-80
2023/03/17 10:39:20;;;;;;;9.43;3.72;;;;;;;;;;5035692;28;20033;-80
2023/03/17 10:41:58;;;;;;;9.55;3.40;;;;;;;;;;5036808;28;20025;-80
2023/03/17 10:44:41;;;;;;;12.43;4.97;;;;;;;;;;5036741;28;20040;-80
2023/03/17 10:47:19;;;;;;;6.55;3.95;;;;;;;;;;5036697;28;20013;-80
2023/03/17 10:49:46;;;;;;;9.77;3.78;;;;;;;;;;5035329;28;20034;-80
2023/03/17 10:52:19;;;;;;;7.20;3.80;;;;;;;;;;5036557;28;20024;-80
2023/03/17 10:54:51;;;;;;;6.22;3.60;;;;;;;;;;5036500;28;20017;-80
2023/03/17 10:57:18;;;;;;;8.63;3.88;;;;;;;;;;5036822;28;20029;-80
2023/03/17 10:59:52;;;;;;;9.90;4.43;;;;;;;;;;5035615;28;20017;-80
2023/03/17 11:02:29;;;;;;;8.65;3.83;;;;;;;;;;5036671;28;20025;-80
2023/03/17 11:04:59;;;;;;;10.80;4.50;;;;;;;;;;5036571;28;20076;-80
2023/03/17 11:07:37;;;;;;;15.32;5.88;;;;;;;;;;5036525;28;20033;-79
2023/03/17 11:10:04;;;;;;;7.03;3.35;;;;;;;;;;5035389;28;20029;-80
2023/03/17 11:12:41;;;;;;;7.78;3.10;;;;;;;;;;5036603;28;20037;-80
2023/03/17 11:15:11;;;;;;;9.60;4.75;;;;;;;;;;5036516;28;20044;-79
2023/03/17 11:17:40;;;;;;;6.68;2.95;;;;;;;;;;5035367;28;20351;-79
2023/03/17 11:20:09;;;;;;;11.45;3.38;;;;;;;;;;5036404;28;20040;-79
2023/03/17 11:22:40;;;;;;;6.78;3.33;;;;;;;;;;5036559;28;20025;-79
2023/03/17 11:25:08;;;;;;;11.35;4.82;;;;;;;;;;5039844;28;20408;-80
2023/03/17 11:27:37;;;;;;;9.02;4.05;;;;;;;;;;5039830;28;20029;-80
2023/03/17 11:30:10;;;;;;;12.70;5.07;;;;;;;;;;5038854;28;20029;-80
2023/03/17 11:32:35;;;;;;;;;;;;;;;;;;5040072;28;20025;-81
2023/03/17 11:35:22;;;;;;;9.05;4.05;;;;;;;;;;5039703;28;19904;-80
2023/03/17 11:37:48;;;;;;;11.07;3.55;;;;;;;;;;5039623;28;20430;-80
2023/03/17 11:40:26;;;;;;;4.60;2.60;;;;;;;;;;5039331;28;20025;-80
2023/03/17 11:43:10;;;;;;;7.60;2.80;;;;;;;;;;5039341;28;20021;-80
2023/03/17 11:45:40;;;;;;;9.93;3.28;;;;;;;;;;5039634;28;20316;-80
2023/03/17 11:48:06;;;;;;;6.18;3.10;;;;;;;;;;5039554;28;20104;-80
2023/03/17 11:50:38;;;;;;;6.43;2.90;;;;;;;;;;5039382;28;20032;-80
2023/03/17 11:53:04;;;;;;;7.47;2.97;;;;;;;;;;5039489;28;20017;-80
2023/03/17 11:55:38;;;;;;;10.32;2.67;;;;;;;;;;5039348;28;20029;-80
2023/03/17 11:58:12;;;;;;;5.65;2.90;;;;;;;;;;5039238;28;20415;-79
2023/03/17 12:00:51;;;;;;;5.97;2.90;;;;;;;;;;5039421;28;20033;-81
2023/03/17 12:03:21;;;;;;;9.02;3.75;;;;;;;;;;5038412;28;20419;-81
2023/03/17 12:05:49;;;;;;;7.60;3.97;;;;;;;;;;5039259;28;20056;-81
2023/03/17 12:08:36;;;;;;;5.43;3.10;;;;;;;;;;5039357;28;20344;-81
2023/03/17 12:11:05;;;;;;;5.13;2.50;;;;;;;;;;5039367;28;20025;-81
2023/03/17 12:13:41;;;;;;;8.85;4.35;;;;;;;;;;5039120;28;20045;-81
2023/03/17 12:16:10;;;;;;;8.00;3.20;;;;;;;;;;5038902;28;20026;-80
2023/03/17 12:18:47;;;;;;;5.50;2.40;;;;;;;;;;5038672;28;20432;-80
2023/03/17 12:21:31;;;;;;;6.55;2.80;;;;;;;;;;5038964;28;20426;-79
2023/03/17 12:24:08;;;;;;;4.80;2.80;;;;;;;;;;5038820;28;20028;-80
2023/03/17 12:26:44;;;;;;;6.45;2.97;;;;;;;;;;5038742;28;20362;-80
2023/03/17 12:29:22;;;;;;;7.05;3.40;;;;;;;;;;5038740;28;20033;-82
2023/03/17 12:31:57;;;;;;;6.07;3.20;;;;;;;;;;5038788;28;20089;-79
2023/03/17 12:34:24;;;;;;;5.90;2.80;;;;;;;;;;5038359;28;20052;-80
2023/03/17 12:36:50;;;;;;;7.05;3.45;;;;;;;;;;5038577;28;20108;-80
2023/03/17 12:39:18;;;;;;;12.20;4.68;;;;;;;;;;5038413;28;20425;-80
2023/03/17 12:42:04;;;;;;;6.47;3.25;;;;;;;;;;5038463;28;20411;-80
2023/03/17 12:44:49;;;;;;;5.28;3.10;;;;;;;;;;5038652;28;20083;-81
2023/03/17 12:47:33;;;;;;;6.00;2.97;;;;;;;;;;5038562;28;20021;-80
2023/03/17 12:50:15;;;;;;;4.15;2.10;;;;;;;;;;5038359;28;20095;-81
2023/03/17 12:52:57;;;;;;;3.95;2.30;;;;;;;;;;5038221;28;20395;-83
2023/03/17 12:55:25;;;;;;;47.15;4.78;;;;;;;;;;5038467;28;20153;-82
2023/03/17 12:58:02;;;;;;;7.32;2.72;;;;;;;;;;5037220;28;20064;-82
2023/03/17 13:00:33;;;;;;;14.23;3.78;;;;;;;;;;5037092;28;20080;-82
2023/03/17 13:03:17;;;;;;;6.30;3.20;;;;;;;;;;5037401;28;20465;-82
2023/03/17 13:05:49;;;;;;;6.88;3.47;;;;;;;;;;5038425;28;20033;-82
2023/03/17 13:08:19;;;;;;;8.80;4.20;;;;;;;;;;5038194;28;20349;-82
2023/03/17 13:10:49;;;;;;;15.50;5.20;;;;;;;;;;5038197;28;20262;-82
2023/03/17 13:13:35;;;;;;;9.80;4.00;;;;;;;;;;5038084;28;20075;-82
2023/03/17 13:16:03;;;;;;;8.18;3.17;;;;;;;;;;5038154;28;20033;-81
2023/03/17 13:18:45;;;;;;;7.38;3.17;;;;;;;;;;5036814;28;20049;-82
2023/03/17 13:21:16;;;;;;;6.03;2.65;;;;;;;;;;5037747;28;20033;-82
2023/03/17 13:23:54;;;;;;;5.90;2.55;;;;;;;;;;5037948;28;20139;-82
2023/03/17 13:26:40;;;;;;;6.68;2.67;;;;;;;;;;5038071;28;20026;-82
2023/03/17 13:29:22;;;;;;;6.45;2.42;;;;;;;;;;4957872;29;20341;-81
2023/03/17 13:31:48;;;;;;;4.85;2.15;;;;;;;;;;4957983;29;20042;-81
2023/03/17 13:34:16;;;;;;;7.30;2.80;;;;;;;;;;4957896;29;20043;-83
2023/03/17 13:36:45;;;;;;;4.43;2.53;;;;;;;;;;4941783;29;20090;-81
2023/03/17 13:39:11;;;;;;;8.10;2.88;;;;;;;;;;4957540;28;20035;-81
2023/03/17 13:41:47;;;;;;;4.03;2.25;;;;;;;;;;4957654;29;20406;-81
2023/03/17 13:44:16;;;;;;;10.68;3.67;;;;;;;;;;4957545;29;20035;-81
2023/03/17 13:46:45;;;;;;;8.77;3.38;;;;;;;;;;4957625;28;20127;-82
2023/03/17 13:49:20;;;;;;;6.32;2.45;;;;;;;;;;4957624;29;20445;-82
2023/03/17 13:52:09;;;;;;;6.72;1.95;;;;;;;;;;4957596;29;20028;-82
2023/03/17 13:54:41;;;;;;;6.28;2.45;;;;;;;;;;4900286;29;20040;-82
2023/03/17 13:57:07;;;;;;;;;;;;;;;;;;4900916;29;20040;-82
2023/03/17 13:59:41;;;;;;;5.68;2.85;;;;;;;;;;4900207;29;19912;-82
2023/03/17 14:02:17;;;;;;;4.65;2.55;;;;;;;;;;4900297;29;20032;-82
2023/03/17 14:04:43;;;;;;;4.80;2.22;;;;;;;;;;4900511;29;20039;-82
2023/03/17 14:07:15;;;;;;;5.60;2.42;;;;;;;;;;4969973;28;20118;-82
2023/03/17 14:09:42;;;;;;;5.90;2.63;;;;;;;;;;4976586;28;20432;-82
2023/03/17 14:12:21;;;;;;;3.90;2.35;;;;;;;;;;4976508;28;20046;-81
2023/03/17 14:14:47;;;;;;;5.78;2.33;;;;;;;;;;4976545;28;20037;-82
2023/03/17 14:17:15;;;;;;;6.00;2.50;;;;;;;;;;4960443;28;20039;-82
2023/03/17 14:19:42;;;;;;;4.45;2.20;;;;;;;;;;4976407;28;20046;-82
2023/03/17 14:22:24;;;;;;;4.40;2.20;;;;;;;;;;4960139;28;20306;-83
2023/03/17 14:24:51;;;;;;;5.47;2.28;;;;;;;;;;4976717;28;20037;-82
2023/03/17 14:27:18;;;;;;;3.65;1.90;;;;;;;;;;4976536;28;20298;-82
2023/03/17 14:29:44;;;;;;;5.00;2.08;;;;;;;;;;4960313;28;20069;-82
2023/03/17 14:32:15;;;;;;;4.85;1.90;;;;;;;;;;5022382;28;20379;-82
2023/03/17 14:34:53;;;;;;;5.30;2.10;;;;;;;;;;5035576;28;20044;-82
2023/03/17 14:37:19;;;;;;;12.02;6.32;;;;;;;;;;5036994;28;20026;-83
2023/03/17 14:39:47;;;;;;;7.05;3.88;;;;;;;;;;5035846;28;20067;-83
2023/03/17 14:42:13;;;;;;;5.28;2.00;;;;;;;;;;5035900;28;20350;-84
2023/03/17 14:44:40;;;;;;;8.00;2.88;;;;;;;;;;5036946;28;20033;-83
2023/03/17 14:47:27;;;;;;;5.88;2.65;;;;;;;;;;5035943;28;20021;-83
2023/03/17 14:49:53;;;;;;;6.97;2.90;;;;;;;;;;5036937;28;20068;-82